createdAt,value
2019-04-23T00:01:14.680Z,52.00
2019-04-23T00:03:43.871Z,52.10
2019-04-23T00:06:15.059Z,52.10
2019-04-23T00:11:13.033Z,52.40
2019-04-23T00:16:23.823Z,52.40
2019-04-23T00:18:46.410Z,52.30
2019-04-23T00:21:54.986Z,52.30
2019-04-23T00:25:06.158Z,52.50
2019-04-23T00:27:23.865Z,52.50
2019-04-23T00:29:53.289Z,52.60
2019-04-23T00:32:23.148Z,52.60
2019-04-23T00:34:56.374Z,52.70
2019-04-23T00:39:52.832Z,52.80
2019-04-23T00:42:29.545Z,52.90
2019-04-23T00:44:58.678Z,52.90
2019-04-23T00:47:46.601Z,52.90
2019-04-23T00:52:35.355Z,53.10
2019-04-23T00:55:12.483Z,53.10
2019-04-23T01:00:19.299Z,53.20
2019-04-23T01:02:47.462Z,53.30
2019-04-23T01:05:18.419Z,53.30
2019-04-23T01:07:49.983Z,53.50
2019-04-23T01:10:29.211Z,53.40
2019-04-23T01:13:00.062Z,53.60
2019-04-23T01:15:39.762Z,53.60
2019-04-23T01:18:10.983Z,53.70
2019-04-23T01:22:59.090Z,53.80
2019-04-23T01:25:51.358Z,53.80
2019-04-23T01:28:42.445Z,53.80
2019-04-23T01:33:44.930Z,53.90
2019-04-23T01:36:22.075Z,53.90
2019-04-23T01:38:45.586Z,54.00
2019-04-23T01:41:25.257Z,54.00
2019-04-23T01:43:47.756Z,54.10
2019-04-23T01:46:25.389Z,54.20
2019-04-23T01:48:58.240Z,54.20
2019-04-23T01:51:36.341Z,54.30
2019-04-23T01:53:58.697Z,54.50
2019-04-23T01:56:28.437Z,54.50
2019-04-23T01:59:05.080Z,54.70
2019-04-23T02:01:40.206Z,54.70
2019-04-23T02:04:16.938Z,54.90
2019-04-23T02:06:57.774Z,55.10
2019-04-23T02:09:12.389Z,55.10
2019-04-23T02:14:20.809Z,55.30
2019-04-23T02:16:53.206Z,55.30
2019-04-23T02:19:26.291Z,55.20
2019-04-23T02:22:12.923Z,55.40
2019-04-23T02:24:47.584Z,55.50
2019-04-23T02:27:22.934Z,55.50
2019-04-23T02:30:10.647Z,55.50
2019-04-23T02:32:31.851Z,55.50
2019-04-23T02:37:45.618Z,55.40
2019-04-23T02:43:01.267Z,55.60
2019-04-23T02:47:47.877Z,55.70
2019-04-23T02:50:34.575Z,55.60
2019-04-23T02:55:17.716Z,55.70
2019-04-23T02:57:50.424Z,55.70
2019-04-23T03:02:59.171Z,55.80
2019-04-23T03:05:24.898Z,55.80
2019-04-23T03:08:00.047Z,55.80
2019-04-23T03:10:32.272Z,55.90
2019-04-23T03:13:09.240Z,55.90
2019-04-23T03:21:29.083Z,55.90
2019-04-23T03:24:11.112Z,55.90
2019-04-23T03:26:36.866Z,55.80
2019-04-23T03:29:06.403Z,55.90
2019-04-23T03:38:55.592Z,56.10
2019-04-23T03:44:16.623Z,56.10
2019-04-23T03:46:43.981Z,56.10
2019-04-23T03:49:15.246Z,56.10
2019-04-23T03:52:01.261Z,56.10
2019-04-23T03:54:30.665Z,56.10
2019-04-23T03:59:36.835Z,56.00
2019-04-23T04:02:15.366Z,55.90
2019-04-23T04:04:33.462Z,55.80
2019-04-23T04:07:10.505Z,55.80
2019-04-23T04:17:19.651Z,55.60
2019-04-23T04:25:01.690Z,55.40
2019-04-23T04:27:36.860Z,55.30
2019-04-23T04:32:42.890Z,55.30
2019-04-23T04:35:16.329Z,55.10
2019-04-23T04:40:29.460Z,54.80
2019-04-23T04:42:42.389Z,54.70
2019-04-23T04:45:20.483Z,54.60
2019-04-23T04:50:32.813Z,54.20
2019-04-23T04:53:12.440Z,54.20
2019-04-23T04:55:23.827Z,53.90
2019-04-23T04:57:58.631Z,53.80
2019-04-23T05:00:42.539Z,53.90
2019-04-23T05:08:05.225Z,53.20
2019-04-23T05:13:33.918Z,53.90
2019-04-23T05:15:44.840Z,52.20
2019-04-23T05:18:28.801Z,50.60
2019-04-23T05:23:42.887Z,48.30
2019-04-23T05:26:24.818Z,46.70
2019-04-23T05:29:00.144Z,45.70
2019-04-23T05:33:58.160Z,44.50
2019-04-23T05:51:48.639Z,42.50
2019-04-23T05:54:12.536Z,42.50
2019-04-23T05:56:46.882Z,42.30
2019-04-23T05:59:16.055Z,42.10
2019-04-23T06:04:24.645Z,42.40
2019-04-23T06:09:25.310Z,43.00
2019-04-23T06:14:32.859Z,43.50
2019-04-23T06:19:52.113Z,43.80
2019-04-23T06:22:26.346Z,44.00
2019-04-23T06:24:49.215Z,44.20
2019-04-23T06:30:08.826Z,45.10
2019-04-23T06:32:25.937Z,44.60
2019-04-23T06:34:56.620Z,44.80
2019-04-23T06:37:49.611Z,44.90
2019-04-23T06:40:08.227Z,44.90
2019-04-23T06:42:52.103Z,44.90
2019-04-23T06:45:22.412Z,45.00
2019-04-23T06:48:01.876Z,45.00
2019-04-23T06:50:29.956Z,45.00
2019-04-23T06:52:59.418Z,45.10
2019-04-23T06:55:44.038Z,45.10
2019-04-23T06:58:12.302Z,45.00
2019-04-23T07:00:51.233Z,45.00
2019-04-23T07:09:05.169Z,44.90
2019-04-23T07:11:34.141Z,44.90
2019-04-23T07:13:55.795Z,45.00
2019-04-23T07:16:21.638Z,45.00
2019-04-23T07:19:19.347Z,45.00
2019-04-23T07:21:42.069Z,45.10
2019-04-23T07:26:40.488Z,45.10
2019-04-23T07:29:14.939Z,45.30
2019-04-23T07:31:44.784Z,45.20
2019-04-23T07:34:26.456Z,45.20
2019-04-23T07:37:00.163Z,45.20
2019-04-23T07:39:45.676Z,45.20
2019-04-23T07:42:42.161Z,45.40
2019-04-23T07:50:42.416Z,45.40
2019-04-23T07:53:18.909Z,45.10
2019-04-23T08:00:52.874Z,45.10
2019-04-23T08:05:55.851Z,44.90
2019-04-23T08:08:33.282Z,45.00
2019-04-23T08:13:55.643Z,44.90
2019-04-23T08:16:29.384Z,44.80
2019-04-23T08:21:31.803Z,44.70
2019-04-23T08:24:41.963Z,44.70
2019-04-23T08:27:45.187Z,44.60
2019-04-23T08:30:29.367Z,44.60
2019-04-23T08:33:00.301Z,45.10
2019-04-23T08:35:26.763Z,44.40
2019-04-23T08:40:57.211Z,44.30
2019-04-23T08:43:42.333Z,44.40
2019-04-23T08:46:23.374Z,44.50
2019-04-23T08:49:06.683Z,44.50
2019-04-23T08:51:44.466Z,44.60
2019-04-23T08:54:18.751Z,44.70
2019-04-23T08:56:48.831Z,44.60
2019-04-23T08:59:18.203Z,44.60
2019-04-23T09:02:00.676Z,44.50
2019-04-23T09:04:24.006Z,44.50
2019-04-23T09:07:04.505Z,44.50
2019-04-23T09:09:45.358Z,44.60
2019-04-23T09:12:45.406Z,44.60
2019-04-23T09:15:07.855Z,44.50
2019-04-23T09:17:44.405Z,44.50
2019-04-23T09:22:42.175Z,44.30
2019-04-23T09:25:36.739Z,44.40
2019-04-23T09:27:59.744Z,44.30
2019-04-23T09:30:49.670Z,44.30
2019-04-23T09:33:46.761Z,44.30
2019-04-23T09:36:38.014Z,44.30
2019-04-23T09:39:27.555Z,44.20
2019-04-23T09:42:38.420Z,44.10
2019-04-23T09:45:35.808Z,44.10
2019-04-23T09:50:44.459Z,44.10
2019-04-23T09:53:18.893Z,44.00
2019-04-23T09:56:01.142Z,44.10
2019-04-23T09:58:16.766Z,44.00
2019-04-23T10:01:23.559Z,44.00
2019-04-23T10:03:40.602Z,44.00
2019-04-23T10:06:06.270Z,44.10
2019-04-23T10:08:38.281Z,43.90
2019-04-23T10:11:19.642Z,43.90
2019-04-23T10:13:50.363Z,43.80
2019-04-23T10:16:23.353Z,43.70
2019-04-23T10:18:53.371Z,44.50
2019-04-23T10:21:25.508Z,43.70
2019-04-23T10:23:57.179Z,43.70
2019-04-23T10:26:28.334Z,43.60
2019-04-23T10:29:05.540Z,43.50
2019-04-23T10:31:37.839Z,43.30
2019-04-23T10:34:10.373Z,43.20
2019-04-23T10:36:44.170Z,43.10
2019-04-23T10:39:24.192Z,43.10
2019-04-23T10:41:53.155Z,42.90
2019-04-23T10:44:33.535Z,42.90
2019-04-23T10:47:53.987Z,42.90
2019-04-23T10:50:57.216Z,42.80
2019-04-23T10:55:58.881Z,42.60
2019-04-23T10:58:33.877Z,42.70
2019-04-23T11:01:08.676Z,42.70
2019-04-23T11:03:49.295Z,42.60
2019-04-23T11:06:21.501Z,42.40
2019-04-23T11:08:44.029Z,42.10
2019-04-23T11:11:25.507Z,41.80
2019-04-23T11:13:56.662Z,41.80
2019-04-23T11:19:07.790Z,41.50
2019-04-23T11:21:34.205Z,41.50
2019-04-23T11:24:10.952Z,41.60
2019-04-23T11:26:42.360Z,41.90
2019-04-23T11:29:20.924Z,41.70
2019-04-23T11:34:44.471Z,41.30
2019-04-23T11:39:44.175Z,41.10
2019-04-23T11:42:19.369Z,41.20
2019-04-23T11:44:47.217Z,41.00
2019-04-23T11:47:45.669Z,40.90
2019-04-23T11:50:39.579Z,40.90
2019-04-23T11:55:28.999Z,40.80
2019-04-23T12:00:31.355Z,40.50
2019-04-23T12:03:14.276Z,40.60
2019-04-23T12:06:23.690Z,40.60
2019-04-23T12:09:16.086Z,40.80
2019-04-23T12:14:46.656Z,40.80
2019-04-23T12:17:41.121Z,40.50
2019-04-23T12:27:39.692Z,40.70
2019-04-23T12:30:24.885Z,40.50
2019-04-23T12:35:29.043Z,40.80
2019-04-23T12:38:15.453Z,41.10
2019-04-23T12:40:38.381Z,41.10
2019-04-23T12:43:18.936Z,41.10
2019-04-23T12:45:46.905Z,41.10
2019-04-23T12:51:01.192Z,41.00
2019-04-23T12:53:34.672Z,41.10
2019-04-23T12:56:02.606Z,41.60
2019-04-23T12:58:29.479Z,40.90
2019-04-23T13:01:19.995Z,41.00
2019-04-23T13:03:40.899Z,41.10
2019-04-23T13:06:17.089Z,41.00
2019-04-23T13:08:52.316Z,41.00
2019-04-23T13:11:30.197Z,40.90
2019-04-23T13:14:00.478Z,40.90
2019-04-23T13:16:44.667Z,40.90
2019-04-23T13:19:25.249Z,40.90
2019-04-23T13:22:02.958Z,40.80
2019-04-23T13:24:48.957Z,40.70
2019-04-23T13:27:29.038Z,40.90
2019-04-23T13:32:50.095Z,40.60
2019-04-23T13:35:19.898Z,40.20
2019-04-23T13:37:59.007Z,39.90
2019-04-23T13:40:32.100Z,39.70
2019-04-23T13:46:14.906Z,39.20
2019-04-23T13:49:10.023Z,39.10
2019-04-23T13:51:48.712Z,39.40
2019-04-23T13:54:50.201Z,39.50
2019-04-23T13:57:33.369Z,39.80
2019-04-23T13:59:39.464Z,40.10
2019-04-23T14:02:19.605Z,39.90
2019-04-23T14:05:02.601Z,39.90
2019-04-23T14:07:41.848Z,39.90
2019-04-23T14:10:20.970Z,39.60
2019-04-23T14:15:39.312Z,39.60
2019-04-23T14:18:36.699Z,39.60
2019-04-23T14:20:32.036Z,39.80
2019-04-23T14:23:57.812Z,39.90
2019-04-23T14:26:32.234Z,39.70
2019-04-23T14:28:55.668Z,40.00
2019-04-23T14:31:23.475Z,40.30
2019-04-23T14:34:06.439Z,40.40
2019-04-23T14:39:09.839Z,40.40
2019-04-23T14:41:54.134Z,40.40
2019-04-23T14:44:43.903Z,40.50
2019-04-23T14:47:31.139Z,40.60
2019-04-23T14:50:21.095Z,40.60
2019-04-23T14:52:40.903Z,40.70
2019-04-23T14:55:50.903Z,40.80
2019-04-23T14:58:11.692Z,41.00
2019-04-23T15:03:30.708Z,40.70
2019-04-23T15:06:05.134Z,40.70
2019-04-23T15:08:50.121Z,40.60
2019-04-23T15:11:13.127Z,40.40
2019-04-23T15:13:41.298Z,40.50
2019-04-23T15:16:17.125Z,40.50
2019-04-23T15:24:30.639Z,40.80
2019-04-23T15:29:31.845Z,40.80
2019-04-23T15:32:20.229Z,40.80
2019-04-23T15:34:57.557Z,40.90
2019-04-23T15:40:04.301Z,41.10
2019-04-23T15:45:07.971Z,41.20
2019-04-23T15:47:40.062Z,41.30
2019-04-23T15:55:46.805Z,41.40
2019-04-23T15:58:09.300Z,41.50
2019-04-23T16:00:30.959Z,41.50
2019-04-23T16:02:38.899Z,41.60
2019-04-23T16:05:12.389Z,41.80
2019-04-23T16:08:01.663Z,42.10
2019-04-23T16:10:54.860Z,42.20
2019-04-23T16:13:50.400Z,42.20
2019-04-23T16:16:18.420Z,42.50
2019-04-23T16:19:25.230Z,42.40
2019-04-23T16:27:31.995Z,42.90
2019-04-23T16:30:15.594Z,42.80
2019-04-23T16:33:08.834Z,42.70
2019-04-23T16:36:21.852Z,42.80
2019-04-23T16:38:54.958Z,42.70
2019-04-23T16:41:11.279Z,42.60
2019-04-23T16:43:48.723Z,42.90
2019-04-23T16:46:24.010Z,43.00
2019-04-23T16:49:02.898Z,43.00
2019-04-23T16:51:24.789Z,43.10
2019-04-23T16:53:54.244Z,43.20
2019-04-23T16:59:08.744Z,43.40
2019-04-23T17:01:24.937Z,43.50
2019-04-23T17:04:09.851Z,43.60
2019-04-23T17:06:36.144Z,43.60
2019-04-23T17:09:09.989Z,43.50
2019-04-23T17:11:53.116Z,43.50
2019-04-23T17:16:45.961Z,43.60
2019-04-23T17:19:22.692Z,43.70
2019-04-23T17:22:00.064Z,43.70
2019-04-23T17:27:08.517Z,43.90
2019-04-23T17:29:41.955Z,44.20
2019-04-23T17:32:16.551Z,44.30
2019-04-23T17:35:15.481Z,44.50
2019-04-23T17:40:42.542Z,44.70
2019-04-23T17:43:12.303Z,44.90
2019-04-23T17:45:50.891Z,44.80
2019-04-23T17:48:21.739Z,45.00
2019-04-23T17:53:50.050Z,45.30
2019-04-23T17:57:10.036Z,46.10
2019-04-23T18:02:55.377Z,45.90
2019-04-23T18:05:43.955Z,46.10
2019-04-23T18:08:00.811Z,46.10
2019-04-23T18:10:59.485Z,46.40
2019-04-23T18:13:13.203Z,46.60
2019-04-23T18:15:57.035Z,46.80
2019-04-23T18:18:34.887Z,47.00
2019-04-23T18:21:29.445Z,47.10
2019-04-23T18:24:16.775Z,47.40
2019-04-23T18:29:51.033Z,47.60
2019-04-23T18:32:12.763Z,47.90
2019-04-23T18:35:04.323Z,48.30
2019-04-23T18:37:17.957Z,48.20
2019-04-23T18:40:00.436Z,48.30
2019-04-23T18:42:28.385Z,48.40
2019-04-23T18:44:48.544Z,48.70
2019-04-23T18:50:02.360Z,48.90
2019-04-23T18:52:55.872Z,49.10
2019-04-23T18:55:14.186Z,49.20
2019-04-23T18:57:50.383Z,49.40
2019-04-23T19:00:36.993Z,49.50
2019-04-23T19:03:30.339Z,49.60
2019-04-23T19:06:10.546Z,49.70
2019-04-23T19:11:24.066Z,50.00
2019-04-23T19:13:50.922Z,50.00
2019-04-23T19:16:31.653Z,50.00
2019-04-23T19:19:03.043Z,50.20
2019-04-23T19:24:21.886Z,50.70
2019-04-23T19:29:35.985Z,50.90
2019-04-23T19:37:18.388Z,51.30
2019-04-23T19:42:21.132Z,51.60
2019-04-23T19:44:55.874Z,51.70
2019-04-23T19:47:51.460Z,51.90
2019-04-23T19:50:16.800Z,51.90
2019-04-23T19:53:03.101Z,52.00
2019-04-23T19:55:17.382Z,52.30
2019-04-23T20:00:33.468Z,52.50
2019-04-23T20:03:17.252Z,52.70
2019-04-23T20:05:35.635Z,52.80
2019-04-23T20:08:17.360Z,52.90
2019-04-23T20:10:39.833Z,53.10
2019-04-23T20:13:19.331Z,53.30
2019-04-23T20:16:00.687Z,53.30
2019-04-23T20:18:21.931Z,53.50
2019-04-23T20:20:54.489Z,53.80
2019-04-23T20:23:37.858Z,53.90
2019-04-23T20:29:03.441Z,54.00
2019-04-23T20:36:53.470Z,54.10
2019-04-23T20:44:39.414Z,54.50
2019-04-23T20:52:29.249Z,54.80
2019-04-23T20:55:05.189Z,54.90
2019-04-23T20:57:43.921Z,55.00
2019-04-23T21:05:41.921Z,55.40
2019-04-23T21:08:30.665Z,55.40
2019-04-23T21:11:05.178Z,55.60
2019-04-23T21:16:12.801Z,55.90
2019-04-23T21:18:57.247Z,55.90
2019-04-23T21:21:39.746Z,56.10
2019-04-23T21:24:29.580Z,56.20
2019-04-23T21:27:14.973Z,56.20
2019-04-23T21:30:03.495Z,56.20
2019-04-23T21:33:06.590Z,56.50
2019-04-23T21:39:26.885Z,56.50
2019-04-23T21:42:04.837Z,56.60
2019-04-23T21:44:25.506Z,56.80
2019-04-23T21:47:02.213Z,57.00
2019-04-23T21:49:48.159Z,57.10
2019-04-23T21:54:42.946Z,57.40
2019-04-23T21:57:14.651Z,57.70
2019-04-23T21:59:50.448Z,57.70
2019-04-23T22:02:21.736Z,57.80
2019-04-23T22:05:01.033Z,58.00
2019-04-23T22:07:39.883Z,58.20
2019-04-23T22:12:42.011Z,58.40
2019-04-23T22:15:08.346Z,58.30
2019-04-23T22:17:37.496Z,58.40
2019-04-23T22:25:25.283Z,58.90
2019-04-23T22:28:00.760Z,58.40
2019-04-23T22:30:42.372Z,58.50
2019-04-23T22:33:09.636Z,59.20
2019-04-23T22:35:37.827Z,58.70
2019-04-23T22:38:18.789Z,58.80
2019-04-23T22:40:58.193Z,58.80
2019-04-23T22:48:46.071Z,59.10
2019-04-23T22:51:35.941Z,59.10
2019-04-23T22:54:03.737Z,59.20
2019-04-23T22:56:35.565Z,59.20
2019-04-23T23:06:55.497Z,59.50
2019-04-23T23:11:53.978Z,59.60
2019-04-23T23:16:58.804Z,60.00
2019-04-23T23:19:54.361Z,60.00
2019-04-23T23:24:41.150Z,60.20
2019-04-23T23:27:10.301Z,60.30
2019-04-23T23:29:49.406Z,60.30
2019-04-23T23:32:19.113Z,60.50
2019-04-23T23:35:01.079Z,60.60
2019-04-23T23:40:00.087Z,60.70
2019-04-23T23:42:26.500Z,60.70
2019-04-23T23:45:01.916Z,60.70
2019-04-23T23:47:50.313Z,60.60
2019-04-23T23:50:11.208Z,60.80
2019-04-23T23:55:16.618Z,61.00
2019-04-23T23:57:42.732Z,61.10
